Time;durP1;ratioP1;P1;durP2;ratioP2;P2;SDS_P1;SDS_P2;PMS_P1;PMS_P2;Temp;Humidity;BMP_temperature;BMP_pressure;BME280_temperature;BME280_humidity;BME280_pressure;Samples;Min_cycle;Max_cycle;Signal;HPM_P1;HPM_P2
2021/05/01 00:01:21;;;;;;;32.80;29.27;;;11.60;69.90;;;;;;5071125;28;21193;-53
2021/05/01 00:03:48;;;;;;;32.37;29.13;;;11.70;69.90;;;;;;5071531;28;20655;-53
2021/05/01 00:06:15;;;;;;;27.43;24.60;;;11.70;69.90;;;;;;5070078;28;20621;-52
2021/05/01 00:08:42;;;;;;;31.93;28.77;;;11.60;70.00;;;;;;5051674;28;20685;-52
2021/05/01 00:11:09;;;;;;;32.50;29.20;;;11.60;70.20;;;;;;5033622;28;20688;-53
2021/05/01 00:13:36;;;;;;;31.30;27.90;;;11.60;70.80;;;;;;5032401;28;21179;-52
2021/05/01 00:16:03;;;;;;;31.60;27.37;;;11.50;70.00;;;;;;5044258;28;21066;-53
2021/05/01 00:18:30;;;;;;;31.87;28.57;;;11.50;70.10;;;;;;5065099;28;20654;-53
2021/05/01 00:20:57;;;;;;;33.20;28.80;;;11.50;69.90;;;;;;5053831;28;20675;-53
2021/05/01 00:23:24;;;;;;;32.17;28.73;;;11.60;69.90;;;;;;5054700;28;21190;-54
2021/05/01 00:25:50;;;;;;;29.97;26.77;;;11.50;69.70;;;;;;5054318;28;21039;-54
2021/05/01 00:28:18;;;;;;;31.27;28.17;;;11.50;69.70;;;;;;5053785;28;21085;-54
2021/05/01 00:30:45;;;;;;;33.10;29.70;;;11.50;69.80;;;;;;5051844;28;20666;-54
2021/05/01 00:33:11;;;;;;;31.20;27.80;;;11.50;71.00;;;;;;5061575;28;21169;-53
2021/05/01 00:35:38;;;;;;;32.33;29.33;;;11.40;70.60;;;;;;5048540;28;20660;-54
2021/05/01 00:38:06;;;;;;;30.87;27.60;;;11.40;70.80;;;;;;5064393;28;21274;-54
2021/05/01 00:40:33;;;;;;;30.10;26.97;;;11.50;71.10;;;;;;5073661;28;20686;-54
2021/05/01 00:43:00;;;;;;;31.90;28.40;;;11.40;71.00;;;;;;5073304;28;20635;-54
2021/05/01 00:45:28;;;;;;;32.23;28.93;;;11.50;71.00;;;;;;5060462;28;20633;-54
2021/05/01 00:47:54;;;;;;;32.37;29.20;;;11.50;70.70;;;;;;5053833;28;20747;-53
2021/05/01 00:50:21;;;;;;;32.63;29.13;;;11.50;71.10;;;;;;5053904;28;20684;-54
2021/05/01 00:52:48;;;;;;;32.37;28.87;;;11.40;70.70;;;;;;5054376;28;21197;-53
2021/05/01 00:55:14;;;;;;;34.40;30.93;;;11.50;71.00;;;;;;5060401;28;20640;-54
2021/05/01 00:57:41;;;;;;;30.97;27.77;;;11.50;70.80;;;;;;5072659;28;20661;-54
2021/05/01 01:00:20;;;;;;;32.80;29.50;;;11.40;71.00;;;;;;5073393;28;20687;-54
2021/05/01 01:02:48;;;;;;;31.97;26.70;;;11.40;71.30;;;;;;5065476;28;20626;-54
2021/05/01 01:05:15;;;;;;;32.43;28.60;;;11.40;71.50;;;;;;5053651;28;20656;-54
2021/05/01 01:07:42;;;;;;;33.73;30.37;;;11.40;71.70;;;;;;5052832;28;21299;-54
2021/05/01 01:10:09;;;;;;;31.30;28.03;;;11.30;71.50;;;;;;5040996;28;20663;-54
2021/05/01 01:12:36;;;;;;;31.63;28.30;;;11.30;71.90;;;;;;5048441;28;20665;-54
2021/05/01 01:15:03;;;;;;;32.63;29.13;;;11.30;72.20;;;;;;5033338;28;20682;-53
2021/05/01 01:17:29;;;;;;;33.07;29.53;;;11.40;72.40;;;;;;5032574;28;21096;-54
2021/05/01 01:19:57;;;;;;;33.13;29.83;;;11.40;72.20;;;;;;5043747;28;20667;-54
2021/05/01 01:22:25;;;;;;;34.60;30.90;;;11.40;72.20;;;;;;5052630;28;20634;-54
2021/05/01 01:24:51;;;;;;;32.90;29.40;;;11.30;73.20;;;;;;5051834;28;20629;-54
2021/05/01 01:27:18;;;;;;;32.77;29.40;;;11.30;72.60;;;;;;5051920;28;21230;-54
2021/05/01 01:29:47;;;;;;;32.30;29.17;;;11.30;72.70;;;;;;5041713;28;20718;-54
2021/05/01 01:32:14;;;;;;;34.27;30.53;;;11.30;72.80;;;;;;5032851;28;21058;-54
2021/05/01 01:34:41;;;;;;;36.37;31.33;;;11.30;72.70;;;;;;5048904;28;20650;-54
2021/05/01 01:37:08;;;;;;;35.07;30.03;;;11.30;72.90;;;;;;5052229;28;20797;-54
2021/05/01 01:39:36;;;;;;;34.07;30.37;;;11.40;72.90;;;;;;5043164;28;21211;-54
2021/05/01 01:42:03;;;;;;;36.23;32.53;;;11.40;72.70;;;;;;5033121;28;21199;-54
2021/05/01 01:44:29;;;;;;;35.00;31.33;;;11.30;73.20;;;;;;5033267;28;21048;-54
2021/05/01 01:46:56;;;;;;;35.87;32.27;;;11.30;73.60;;;;;;5049550;28;20683;-53
2021/05/01 01:49:23;;;;;;;34.73;30.53;;;11.30;73.80;;;;;;5063116;28;20725;-54
2021/05/01 01:51:49;;;;;;;38.17;32.27;;;11.30;73.60;;;;;;5052244;28;21178;-54
2021/05/01 01:54:16;;;;;;;32.57;29.17;;;11.30;73.70;;;;;;5052038;28;20634;-54
2021/05/01 01:56:44;;;;;;;33.00;28.60;;;11.30;73.70;;;;;;5051693;28;20727;-54
2021/05/01 01:59:10;;;;;;;35.03;31.60;;;11.30;73.90;;;;;;5046586;28;20631;-54
2021/05/01 02:01:37;;;;;;;37.73;33.63;;;11.30;74.10;;;;;;5032467;28;21472;-54
2021/05/01 02:04:04;;;;;;;34.00;30.50;;;11.30;74.00;;;;;;5032635;28;20634;-53
2021/05/01 02:06:31;;;;;;;34.50;30.90;;;11.30;74.10;;;;;;5044658;28;20656;-54
2021/05/01 02:08:58;;;;;;;36.53;32.70;;;11.30;73.80;;;;;;5051364;28;22340;-53
2021/05/01 02:11:24;;;;;;;37.27;32.67;;;11.30;74.60;;;;;;5044857;28;20661;-54
2021/05/01 02:13:52;;;;;;;38.10;34.20;;;11.30;74.00;;;;;;5032203;28;20642;-54
2021/05/01 02:16:18;;;;;;;35.13;31.53;;;11.30;73.90;;;;;;5031911;28;20677;-53
2021/05/01 02:18:45;;;;;;;33.67;29.77;;;11.20;74.10;;;;;;5032478;28;20627;-54
2021/05/01 02:21:12;;;;;;;38.37;29.97;;;11.20;74.20;;;;;;5051795;28;20671;-53
2021/05/01 02:23:39;;;;;;;33.63;29.90;;;11.20;74.40;;;;;;5052355;28;21191;-54
2021/05/01 02:26:05;;;;;;;36.47;32.30;;;11.20;74.50;;;;;;5051972;28;20713;-54
2021/05/01 02:28:32;;;;;;;35.33;31.87;;;11.10;74.70;;;;;;5050894;28;21103;-54
2021/05/01 02:30:59;;;;;;;35.93;32.10;;;11.10;75.00;;;;;;5040320;28;20634;-54
2021/05/01 02:33:27;;;;;;;33.60;29.97;;;11.00;74.90;;;;;;5051171;28;20626;-53
2021/05/01 02:35:54;;;;;;;35.63;31.73;;;11.00;75.60;;;;;;5051369;28;20626;-54
2021/05/01 02:38:21;;;;;;;34.60;31.00;;;11.00;75.70;;;;;;5051353;28;20678;-54
2021/05/01 02:40:48;;;;;;;36.30;32.53;;;10.90;75.70;;;;;;5050934;28;20695;-54
2021/05/01 02:43:14;;;;;;;36.03;30.53;;;10.90;76.00;;;;;;5051854;28;20679;-54
2021/05/01 02:45:41;;;;;;;33.20;29.70;;;10.90;76.20;;;;;;5051528;28;20630;-54
2021/05/01 02:48:09;;;;;;;33.67;28.83;;;10.80;75.70;;;;;;5050325;28;20707;-54
2021/05/01 02:50:36;;;;;;;33.73;30.03;;;10.80;76.20;;;;;;5035743;28;20639;-54
2021/05/01 02:53:04;;;;;;;30.70;27.40;;;10.80;76.30;;;;;;5032634;28;20657;-54
2021/05/01 02:55:31;;;;;;;29.10;26.03;;;10.80;76.40;;;;;;5046746;28;21349;-54
2021/05/01 02:57:58;;;;;;;30.20;27.03;;;10.80;76.30;;;;;;5051317;28;20658;-54
2021/05/01 03:00:26;;;;;;;30.73;26.27;;;10.80;76.10;;;;;;5046662;28;20615;-54
2021/05/01 03:02:54;;;;;;;30.40;24.27;;;10.80;75.70;;;;;;5051166;28;21170;-54
2021/05/01 03:05:21;;;;;;;27.93;25.00;;;10.80;75.60;;;;;;5051455;28;20652;-54
2021/05/01 03:07:48;;;;;;;27.07;24.27;;;10.80;75.30;;;;;;5050531;28;20662;-53
2021/05/01 03:10:17;;;;;;;25.87;23.37;;;10.80;75.60;;;;;;5043859;28;21062;-54
2021/05/01 03:12:43;;;;;;;26.67;23.83;;;10.80;74.40;;;;;;5055557;28;20710;-54
2021/05/01 03:15:11;;;;;;;25.40;22.80;;;10.80;74.10;;;;;;5071775;28;20686;-54
2021/05/01 03:17:38;;;;;;;25.17;22.47;;;10.80;73.80;;;;;;5071129;28;21170;-54
2021/05/01 03:20:06;;;;;;;23.00;20.70;;;10.80;73.40;;;;;;5059655;28;20760;-53
2021/05/01 03:22:34;;;;;;;24.57;21.97;;;10.80;73.30;;;;;;5051581;28;20984;-52
2021/05/01 03:25:01;;;;;;;24.57;21.67;;;10.70;73.30;;;;;;5050588;28;20700;-53
2021/05/01 03:27:28;;;;;;;23.57;21.27;;;10.80;73.10;;;;;;5047998;28;20661;-53
2021/05/01 03:29:55;;;;;;;25.60;20.97;;;10.80;73.10;;;;;;5031234;28;20631;-53
2021/05/01 03:32:21;;;;;;;22.67;20.27;;;10.80;72.80;;;;;;5031448;28;20634;-53
2021/05/01 03:34:48;;;;;;;28.37;25.37;;;10.80;72.80;;;;;;5031595;28;21294;-53
2021/05/01 03:37:15;;;;;;;26.57;23.77;;;10.70;73.10;;;;;;5046902;28;20703;-53
2021/05/01 03:39:43;;;;;;;27.10;24.27;;;10.70;73.80;;;;;;5040674;28;20665;-53
2021/05/01 03:42:09;;;;;;;31.00;26.23;;;10.70;73.90;;;;;;5050986;28;20691;-53
2021/05/01 03:44:36;;;;;;;32.80;27.00;;;10.70;74.30;;;;;;5051169;28;20633;-53
2021/05/01 03:47:03;;;;;;;32.40;28.00;;;10.60;74.60;;;;;;5050932;28;21067;-54
2021/05/01 03:49:30;;;;;;;33.60;30.03;;;10.60;75.40;;;;;;5058835;28;21243;-53
2021/05/01 03:51:56;;;;;;;34.03;30.30;;;10.60;75.70;;;;;;5074716;28;20648;-53
2021/05/01 03:54:23;;;;;;;31.10;27.97;;;10.60;75.80;;;;;;5054284;28;20652;-53
2021/05/01 03:56:50;;;;;;;35.83;30.70;;;10.50;77.10;;;;;;5054078;28;20701;-53
2021/05/01 03:59:17;;;;;;;37.97;33.97;;;10.50;77.70;;;;;;5053773;28;21245;-53
2021/05/01 04:01:44;;;;;;;41.10;35.30;;;10.50;77.90;;;;;;5054715;28;20783;-53
2021/05/01 04:04:11;;;;;;;37.60;32.80;;;10.40;79.10;;;;;;5054442;28;21070;-53
2021/05/01 04:06:38;;;;;;;36.73;32.70;;;10.40;79.20;;;;;;5054461;28;20656;-53
2021/05/01 04:09:05;;;;;;;38.77;34.33;;;10.30;80.00;;;;;;5047550;28;20676;-53
2021/05/01 04:11:31;;;;;;;42.90;35.30;;;10.20;80.40;;;;;;5055204;28;20634;-53
2021/05/01 04:13:59;;;;;;;38.90;33.60;;;10.10;81.00;;;;;;5056587;28;20654;-53
2021/05/01 04:16:26;;;;;;;49.00;38.10;;;10.00;81.80;;;;;;5074242;28;20637;-53
2021/05/01 04:18:52;;;;;;;40.50;36.17;;;10.00;82.70;;;;;;5060208;28;20622;-53
2021/05/01 04:21:19;;;;;;;42.73;38.13;;;9.90;84.40;;;;;;5069054;28;20625;-53
2021/05/01 04:23:46;;;;;;;38.47;34.40;;;10.00;83.60;;;;;;5054012;28;20702;-53
2021/05/01 04:26:13;;;;;;;42.43;38.00;;;10.00;83.80;;;;;;5056815;28;20736;-53
2021/05/01 04:28:40;;;;;;;43.67;37.80;;;10.00;83.80;;;;;;5062140;28;20666;-51
2021/05/01 04:31:07;;;;;;;44.37;39.50;;;10.10;83.60;;;;;;5053842;28;20634;-51
2021/05/01 04:33:35;;;;;;;39.57;35.37;;;10.10;83.80;;;;;;5053936;28;20687;-52
2021/05/01 04:36:01;;;;;;;45.20;40.33;;;10.20;83.80;;;;;;5054061;28;21204;-52
2021/05/01 04:38:28;;;;;;;41.10;36.53;;;10.20;83.30;;;;;;5052690;28;20710;-52
2021/05/01 04:40:56;;;;;;;46.30;39.70;;;10.20;83.30;;;;;;5053737;28;20679;-52
2021/05/01 04:43:24;;;;;;;41.33;36.93;;;10.20;83.30;;;;;;5051989;28;20698;-52
2021/05/01 04:45:51;;;;;;;42.20;35.07;;;10.20;83.30;;;;;;5053801;28;20622;-52
2021/05/01 04:48:20;;;;;;;36.87;32.57;;;10.20;83.40;;;;;;5052656;28;20669;-52
2021/05/01 04:50:49;;;;;;;39.70;33.90;;;10.20;83.30;;;;;;5053797;28;21259;-52
2021/05/01 04:53:15;;;;;;;31.20;27.80;;;10.20;83.30;;;;;;5053434;28;20641;-51
2021/05/01 04:55:42;;;;;;;36.30;32.40;;;10.20;82.40;;;;;;5047781;28;20633;-52
2021/05/01 04:58:09;;;;;;;37.13;32.03;;;10.20;82.10;;;;;;5042165;28;20675;-52
2021/05/01 05:00:36;;;;;;;37.13;33.27;;;10.20;82.00;;;;;;5031104;28;20677;-52
2021/05/01 05:03:02;;;;;;;36.00;31.97;;;10.20;82.30;;;;;;5038744;28;20622;-52
2021/05/01 05:05:30;;;;;;;34.97;31.27;;;10.20;82.30;;;;;;5035149;28;21256;-52
2021/05/01 05:07:57;;;;;;;38.33;32.00;;;10.20;82.60;;;;;;5026075;28;20675;-52
2021/05/01 05:10:23;;;;;;;34.40;30.70;;;10.20;82.60;;;;;;5013250;28;21032;-52
2021/05/01 05:12:50;;;;;;;35.67;31.70;;;10.20;82.50;;;;;;5021861;28;20631;-52
2021/05/01 05:15:17;;;;;;;37.77;32.10;;;10.30;82.60;;;;;;5033506;28;20622;-52
2021/05/01 05:17:44;;;;;;;37.63;33.70;;;10.30;82.70;;;;;;5033139;28;21074;-52
2021/05/01 05:20:11;;;;;;;36.43;32.57;;;10.30;82.60;;;;;;5033269;28;20957;-51
2021/05/01 05:22:39;;;;;;;38.93;32.70;;;10.30;83.20;;;;;;5032358;28;20702;-52
2021/05/01 05:25:06;;;;;;;36.83;30.47;;;10.30;83.50;;;;;;5031703;28;20673;-51
2021/05/01 05:27:33;;;;;;;41.03;33.53;;;10.30;83.50;;;;;;5033423;28;20666;-52
2021/05/01 05:29:59;;;;;;;39.53;33.60;;;10.20;84.30;;;;;;5032697;28;20630;-52
2021/05/01 05:32:26;;;;;;;43.47;37.27;;;10.20;85.10;;;;;;5040257;28;20626;-52
2021/05/01 05:34:53;;;;;;;37.60;33.60;;;10.20;85.10;;;;;;5052737;28;20724;-52
2021/05/01 05:37:20;;;;;;;39.53;35.37;;;10.20;85.20;;;;;;5048528;28;20809;-52
2021/05/01 05:39:49;;;;;;;43.50;36.77;;;10.30;85.20;;;;;;5032067;28;20639;-52
2021/05/01 05:42:16;;;;;;;43.87;37.73;;;10.30;85.10;;;;;;5027860;28;20631;-52
2021/05/01 05:44:44;;;;;;;41.50;37.13;;;10.40;85.20;;;;;;5034764;28;20750;-52
2021/05/01 05:47:11;;;;;;;39.00;34.80;;;10.40;85.20;;;;;;5035903;28;20708;-52
2021/05/01 05:49:38;;;;;;;39.30;35.10;;;10.40;84.90;;;;;;5032076;28;21077;-52
2021/05/01 05:52:05;;;;;;;40.13;35.73;;;10.60;84.50;;;;;;5031988;28;20757;-52
2021/05/01 05:54:32;;;;;;;43.23;35.93;;;10.60;83.90;;;;;;5032896;28;20627;-53
2021/05/01 05:56:59;;;;;;;39.33;34.97;;;10.60;83.10;;;;;;5036168;28;20661;-52
2021/05/01 05:59:26;;;;;;;44.13;36.50;;;10.60;83.40;;;;;;5049554;28;20623;-52
2021/05/01 06:01:53;;;;;;;40.70;35.63;;;10.60;83.60;;;;;;5045312;28;20643;-52
2021/05/01 06:04:22;;;;;;;39.77;33.80;;;10.60;84.20;;;;;;5052999;28;20630;-52
2021/05/01 06:06:52;;;;;;;38.77;34.63;;;10.70;83.40;;;;;;5052002;28;20682;-52
2021/05/01 06:09:20;;;;;;;41.77;34.50;;;10.70;83.40;;;;;;5060457;28;20650;-52
2021/05/01 06:11:47;;;;;;;40.20;35.83;;;10.70;83.60;;;;;;5051015;28;20629;-52
2021/05/01 06:14:15;;;;;;;38.93;34.83;;;10.70;83.60;;;;;;5052136;28;20687;-53
2021/05/01 06:16:43;;;;;;;35.83;31.93;;;10.60;83.80;;;;;;5051902;28;20733;-53
2021/05/01 06:19:10;;;;;;;41.70;37.20;;;10.70;84.00;;;;;;5051603;28;20680;-53
2021/05/01 06:21:37;;;;;;;41.17;35.57;;;10.80;83.90;;;;;;5040567;28;20685;-52
2021/05/01 06:24:05;;;;;;;40.60;36.20;;;10.90;83.40;;;;;;5037887;28;20688;-53
2021/05/01 06:26:32;;;;;;;38.57;34.40;;;11.00;83.10;;;;;;5051532;28;20652;-53
2021/05/01 06:28:59;;;;;;;38.80;34.67;;;11.10;83.10;;;;;;5068974;28;20723;-53
2021/05/01 06:31:26;;;;;;;36.40;31.90;;;11.20;82.90;;;;;;5046401;28;20642;-54
2021/05/01 06:33:53;;;;;;;38.57;34.67;;;11.30;81.50;;;;;;5050126;28;20675;-54
2021/05/01 06:36:24;;;;;;;41.63;37.30;;;11.40;80.90;;;;;;5049894;28;20765;-53
2021/05/01 06:38:54;;;;;;;38.63;34.63;;;11.40;80.30;;;;;;5038518;28;20686;-54
2021/05/01 06:41:20;;;;;;;32.13;28.33;;;11.50;80.40;;;;;;5051473;28;20654;-54
2021/05/01 06:44:00;;;;;;;36.17;32.53;;;11.50;79.70;;;;;;5051775;28;20677;-53
2021/05/01 06:46:28;;;;;;;37.53;31.43;;;11.50;79.20;;;;;;5051466;28;20634;-54
2021/05/01 06:48:54;;;;;;;33.90;30.40;;;11.60;79.00;;;;;;5065926;28;20723;-53
2021/05/01 06:51:21;;;;;;;35.77;32.10;;;11.60;78.30;;;;;;5051420;28;20634;-53
2021/05/01 06:53:48;;;;;;;34.57;31.13;;;11.70;77.90;;;;;;5051560;28;20643;-52
2021/05/01 06:56:15;;;;;;;33.07;29.63;;;11.80;77.80;;;;;;5053622;28;20627;-53
2021/05/01 06:58:41;;;;;;;32.10;28.80;;;11.90;77.40;;;;;;5067479;28;20694;-53
2021/05/01 07:01:09;;;;;;;30.73;27.70;;;12.00;76.30;;;;;;5051073;28;20664;-53
2021/05/01 07:03:40;;;;;;;27.57;24.63;;;12.10;74.50;;;;;;5051037;28;20964;-54
2021/05/01 07:06:06;;;;;;;27.03;24.13;;;12.10;73.30;;;;;;5050582;28;20664;-53
2021/05/01 07:08:33;;;;;;;27.70;25.10;;;12.10;73.00;;;;;;5062686;28;20655;-54
2021/05/01 07:11:01;;;;;;;25.10;22.60;;;12.20;72.80;;;;;;5051008;28;20630;-53
2021/05/01 07:13:28;;;;;;;26.83;24.10;;;12.30;72.00;;;;;;5050962;28;20626;-53
2021/05/01 07:16:00;;;;;;;27.93;25.07;;;12.30;71.30;;;;;;5051339;28;21030;-53
2021/05/01 07:18:26;;;;;;;28.80;24.27;;;12.40;70.90;;;;;;5050697;28;20706;-54
2021/05/01 07:20:56;;;;;;;29.20;26.40;;;12.50;71.30;;;;;;5030840;28;20693;-54
2021/05/01 07:23:22;;;;;;;29.07;26.00;;;12.60;71.30;;;;;;5033059;28;20627;-54
2021/05/01 07:25:49;;;;;;;26.57;24.07;;;12.80;70.80;;;;;;5045959;28;21185;-54
2021/05/01 07:28:19;;;;;;;27.80;25.00;;;13.00;69.90;;;;;;5054717;28;20698;-53
2021/05/01 07:30:46;;;;;;;27.43;24.90;;;13.10;69.20;;;;;;5036413;28;21372;-54
2021/05/01 07:33:16;;;;;;;26.83;23.33;;;13.20;68.60;;;;;;5043600;28;20665;-54
2021/05/01 07:35:44;;;;;;;27.40;24.67;;;13.30;67.70;;;;;;5055211;28;21030;-54
2021/05/01 07:38:12;;;;;;;26.03;23.40;;;13.40;66.80;;;;;;5047608;28;21086;-53
2021/05/01 07:40:39;;;;;;;25.00;22.40;;;13.40;65.60;;;;;;5052795;28;20703;-53
2021/05/01 07:43:06;;;;;;;28.60;25.40;;;13.50;65.60;;;;;;5052871;28;20694;-54
2021/05/01 07:45:34;;;;;;;27.47;24.73;;;13.50;65.20;;;;;;5057630;28;21424;-54
2021/05/01 07:48:01;;;;;;;26.07;23.40;;;13.60;65.60;;;;;;5050436;28;20671;-54
2021/05/01 07:50:28;;;;;;;27.50;24.87;;;13.70;64.70;;;;;;5057137;28;20622;-52
2021/05/01 07:52:55;;;;;;;26.70;23.90;;;13.80;64.10;;;;;;5054237;28;21046;-54
2021/05/01 07:55:23;;;;;;;25.37;23.00;;;13.90;63.10;;;;;;5057088;28;20660;-53
2021/05/01 07:57:51;;;;;;;26.37;23.87;;;13.90;62.20;;;;;;5051556;28;20666;-54
2021/05/01 08:00:18;;;;;;;26.00;23.50;;;13.90;61.80;;;;;;5056668;28;20634;-53
2021/05/01 08:02:45;;;;;;;26.80;24.10;;;14.00;61.90;;;;;;5054952;28;20621;-52
2021/05/01 08:05:12;;;;;;;25.03;22.67;;;14.10;61.00;;;;;;5057108;28;20648;-54
2021/05/01 08:07:39;;;;;;;26.80;24.30;;;14.20;60.60;;;;;;5050451;28;20645;-53
2021/05/01 08:10:09;;;;;;;23.43;21.23;;;14.30;59.80;;;;;;5052415;28;20707;-54
2021/05/01 08:12:36;;;;;;;27.23;24.67;;;14.40;59.40;;;;;;5056947;28;20753;-53
2021/05/01 08:15:04;;;;;;;26.40;23.77;;;14.60;59.40;;;;;;5052773;28;20638;-53
2021/05/01 08:17:31;;;;;;;24.80;22.40;;;14.70;58.90;;;;;;5045700;28;20657;-55
2021/05/01 08:19:58;;;;;;;24.30;21.90;;;14.80;58.20;;;;;;5057411;28;21157;-54
2021/05/01 08:22:24;;;;;;;25.70;23.20;;;14.90;57.10;;;;;;5053139;28;20634;-55
2021/05/01 08:24:51;;;;;;;24.23;21.90;;;15.00;56.50;;;;;;5059003;28;20641;-55
2021/05/01 08:27:18;;;;;;;21.70;19.63;;;14.90;55.90;;;;;;5050990;28;21058;-53
2021/05/01 08:29:46;;;;;;;24.33;21.93;;;14.90;55.40;;;;;;5056064;28;20654;-53
2021/05/01 08:32:14;;;;;;;22.57;20.47;;;14.80;55.00;;;;;;5046798;28;20630;-53
2021/05/01 08:34:40;;;;;;;23.23;20.97;;;14.90;55.20;;;;;;5049828;28;20677;-52
2021/05/01 08:37:07;;;;;;;24.57;22.13;;;14.90;55.40;;;;;;5055800;28;20665;-53
2021/05/01 08:39:34;;;;;;;23.20;21.10;;;15.00;55.30;;;;;;5055706;28;20713;-51
2021/05/01 08:42:01;;;;;;;25.30;22.60;;;15.10;54.80;;;;;;5054537;28;21244;-53
2021/05/01 08:44:28;;;;;;;24.93;22.63;;;15.30;54.70;;;;;;5053575;28;20697;-52
2021/05/01 08:46:57;;;;;;;26.13;23.50;;;15.50;54.20;;;;;;5053444;28;20701;-54
2021/05/01 08:49:24;;;;;;;26.83;24.27;;;15.60;53.90;;;;;;5054261;28;20684;-54
2021/05/01 08:51:50;;;;;;;26.07;23.67;;;15.70;53.80;;;;;;5053597;28;21019;-52
2021/05/01 08:54:17;;;;;;;25.60;23.37;;;15.70;53.10;;;;;;5055676;28;20632;-54
2021/05/01 08:56:44;;;;;;;26.67;23.97;;;15.80;52.70;;;;;;5056382;28;20716;-53
2021/05/01 08:59:11;;;;;;;25.90;23.53;;;15.80;52.60;;;;;;5052622;28;20633;-53
2021/05/01 09:01:38;;;;;;;24.77;22.27;;;15.80;52.00;;;;;;5035027;28;20630;-53
2021/05/01 09:04:06;;;;;;;25.27;22.87;;;15.80;51.90;;;;;;5048903;28;20633;-53
2021/05/01 09:06:33;;;;;;;25.23;22.77;;;15.80;51.90;;;;;;5053061;28;21232;-53
2021/05/01 09:09:03;;;;;;;21.87;19.73;;;15.80;51.90;;;;;;5051380;28;20819;-53
2021/05/01 09:11:34;;;;;;;22.17;19.97;;;15.90;52.20;;;;;;5064778;28;20644;-53
2021/05/01 09:14:13;;;;;;;23.03;20.90;;;15.90;52.20;;;;;;5052894;28;21190;-53
2021/05/01 09:16:41;;;;;;;22.57;20.57;;;16.00;51.20;;;;;;5033347;28;20659;-53
2021/05/01 09:19:08;;;;;;;22.40;20.43;;;16.00;51.20;;;;;;5032941;28;20634;-53
2021/05/01 09:21:36;;;;;;;22.97;20.97;;;16.00;51.70;;;;;;5051399;28;20642;-54
2021/05/01 09:24:04;;;;;;;24.00;21.63;;;16.00;51.80;;;;;;5053287;28;20606;-53
2021/05/01 09:26:40;;;;;;;21.80;19.80;;;16.00;51.60;;;;;;5034955;28;20665;-52
2021/05/01 09:29:07;;;;;;;23.13;21.13;;;16.00;51.20;;;;;;5052351;28;21292;-53
2021/05/01 09:31:40;;;;;;;22.60;20.17;;;15.90;51.30;;;;;;5040945;28;20652;-53
2021/05/01 09:34:08;;;;;;;23.87;21.57;;;15.70;50.90;;;;;;5069825;28;20671;-53
2021/05/01 09:36:35;;;;;;;21.83;19.83;;;15.50;51.60;;;;;;5051007;28;20638;-53
2021/05/01 09:39:12;;;;;;;22.50;20.50;;;15.40;52.30;;;;;;5032361;28;21018;-53
2021/05/01 09:41:39;;;;;;;21.37;19.17;;;15.30;52.20;;;;;;5051193;28;20630;-53
2021/05/01 09:44:07;;;;;;;20.10;18.20;;;15.30;52.40;;;;;;5052830;28;20741;-52
2021/05/01 09:46:46;;;;;;;21.60;19.40;;;15.30;51.70;;;;;;5055991;28;20621;-53
2021/05/01 09:49:15;;;;;;;20.10;18.33;;;15.40;51.00;;;;;;5052123;28;20708;-53
2021/05/01 09:51:49;;;;;;;21.27;19.27;;;15.50;50.70;;;;;;5052291;28;20634;-54
2021/05/01 09:54:20;;;;;;;22.70;20.50;;;15.50;50.90;;;;;;5052492;28;20633;-53
2021/05/01 09:56:49;;;;;;;20.47;18.40;;;15.60;51.30;;;;;;5033675;28;20677;-53
2021/05/01 09:59:16;;;;;;;21.23;19.23;;;15.60;51.30;;;;;;5051722;28;20624;-54
2021/05/01 10:01:43;;;;;;;20.67;18.57;;;15.70;51.20;;;;;;5067041;28;20630;-54
2021/05/01 10:04:11;;;;;;;20.13;18.27;;;15.70;51.00;;;;;;5051803;28;20630;-54
2021/05/01 10:06:41;;;;;;;20.20;18.30;;;15.70;50.70;;;;;;5051942;28;20646;-53
2021/05/01 10:09:10;;;;;;;20.53;18.60;;;15.80;50.50;;;;;;5051743;28;20654;-53
2021/05/01 10:11:37;;;;;;;22.03;19.87;;;15.70;50.50;;;;;;5061757;28;20641;-52
2021/05/01 10:14:05;;;;;;;20.60;18.67;;;15.80;50.50;;;;;;5052553;28;20679;-54
2021/05/01 10:16:32;;;;;;;20.27;18.37;;;15.70;49.80;;;;;;5043913;28;20704;-53
2021/05/01 10:19:06;;;;;;;18.27;16.70;;;15.80;50.20;;;;;;5051673;28;20672;-54
2021/05/01 10:21:33;;;;;;;19.47;17.77;;;15.70;49.70;;;;;;5067173;28;20866;-54
2021/05/01 10:24:01;;;;;;;20.50;18.70;;;15.80;49.70;;;;;;5050706;28;20629;-54
2021/05/01 10:26:40;;;;;;;17.57;16.07;;;15.80;49.40;;;;;;5060948;28;20625;-54
2021/05/01 10:29:06;;;;;;;19.97;18.27;;;15.90;49.50;;;;;;5044414;28;20678;-52
2021/05/01 10:31:44;;;;;;;18.03;16.40;;;16.10;49.10;;;;;;5046438;28;20698;-53
2021/05/01 10:34:13;;;;;;;18.07;16.37;;;16.20;48.90;;;;;;5055306;28;21003;-52
2021/05/01 10:36:40;;;;;;;17.73;16.13;;;16.30;48.50;;;;;;5054058;28;21411;-53
2021/05/01 10:39:09;;;;;;;16.93;15.33;;;16.30;47.90;;;;;;5055437;28;20625;-53
2021/05/01 10:41:36;;;;;;;16.70;15.07;;;16.40;48.10;;;;;;5049273;28;20615;-53
2021/05/01 10:44:04;;;;;;;15.30;13.90;;;16.40;47.30;;;;;;5047626;28;20634;-53
2021/05/01 10:46:32;;;;;;;16.03;14.63;;;16.50;47.00;;;;;;5026088;28;20626;-52
2021/05/01 10:48:59;;;;;;;15.30;13.90;;;16.60;46.60;;;;;;5047655;28;21252;-53
2021/05/01 10:51:28;;;;;;;13.83;12.40;;;16.60;45.60;;;;;;5050197;28;20626;-53
2021/05/01 10:54:10;;;;;;;14.43;12.70;;;16.60;44.70;;;;;;5037866;28;20626;-52
2021/05/01 10:56:37;;;;;;;15.60;14.20;;;16.60;44.00;;;;;;5046268;28;20993;-52
2021/05/01 10:59:08;;;;;;;13.30;12.00;;;16.60;44.70;;;;;;5050289;28;21389;-53
2021/05/01 11:01:37;;;;;;;15.90;14.40;;;16.60;43.80;;;;;;5049956;28;20625;-53
2021/05/01 11:04:05;;;;;;;15.97;14.47;;;16.60;43.80;;;;;;5051286;28;20650;-52
2021/05/01 11:06:38;;;;;;;17.03;15.53;;;16.50;44.70;;;;;;5057324;28;20680;-53
2021/05/01 11:09:06;;;;;;;15.47;13.90;;;16.50;44.90;;;;;;5052121;28;21097;-52
2021/05/01 11:11:35;;;;;;;13.83;12.53;;;16.40;45.20;;;;;;5053476;28;20676;-52
2021/05/01 11:14:08;;;;;;;14.40;13.00;;;16.50;44.20;;;;;;5059666;28;21252;-52
2021/05/01 11:16:42;;;;;;;15.83;14.20;;;16.60;44.20;;;;;;5049250;28;20622;-53
2021/05/01 11:19:09;;;;;;;15.07;13.80;;;16.70;44.30;;;;;;5058507;28;20625;-52
2021/05/01 11:21:36;;;;;;;17.50;15.90;;;16.80;44.20;;;;;;5044095;28;20626;-51
2021/05/01 11:24:03;;;;;;;16.83;15.33;;;16.70;44.20;;;;;;5050515;28;20626;-52
2021/05/01 11:26:29;;;;;;;17.33;15.83;;;16.80;44.40;;;;;;5050977;28;20622;-52
2021/05/01 11:28:57;;;;;;;17.10;15.33;;;16.80;44.10;;;;;;5049675;28;20621;-52
2021/05/01 11:31:24;;;;;;;15.20;13.60;;;16.80;44.30;;;;;;5046717;28;20696;-52
2021/05/01 11:33:51;;;;;;;11.97;10.97;;;16.80;43.90;;;;;;5043660;28;20629;-53
2021/05/01 11:36:19;;;;;;;15.63;14.17;;;16.70;43.30;;;;;;5044525;28;20630;-53
2021/05/01 11:38:48;;;;;;;15.33;13.93;;;16.70;44.10;;;;;;5028204;28;20684;-53
2021/05/01 11:41:15;;;;;;;14.30;12.97;;;16.70;44.20;;;;;;5050025;28;20665;-53
2021/05/01 11:43:42;;;;;;;15.90;14.27;;;16.70;44.20;;;;;;5050868;28;20634;-52
2021/05/01 11:46:23;;;;;;;15.90;14.50;;;16.90;44.10;;;;;;5051681;28;21174;-54
2021/05/01 11:48:52;;;;;;;16.93;15.30;;;17.00;44.30;;;;;;5047640;28;20634;-53
2021/05/01 11:51:26;;;;;;;14.03;12.73;;;17.10;43.30;;;;;;5049824;28;20622;-53
2021/05/01 11:53:55;;;;;;;13.90;12.80;;;17.20;42.40;;;;;;5049093;28;20687;-54
2021/05/01 11:56:27;;;;;;;13.50;12.33;;;17.20;42.10;;;;;;5053921;28;20652;-53
2021/05/01 11:59:06;;;;;;;14.33;13.13;;;17.20;42.20;;;;;;5045016;28;20684;-53
2021/05/01 12:01:34;;;;;;;14.97;13.67;;;17.30;42.30;;;;;;5051160;28;20625;-54
2021/05/01 12:04:02;;;;;;;14.23;12.93;;;17.40;42.30;;;;;;5050913;28;20663;-53
2021/05/01 12:06:38;;;;;;;14.03;12.83;;;17.50;42.40;;;;;;5050165;28;21362;-54
2021/05/01 12:09:06;;;;;;;13.73;12.47;;;17.60;41.50;;;;;;5050946;28;20675;-55
2021/05/01 12:11:35;;;;;;;13.57;12.23;;;17.70;41.50;;;;;;5055232;28;20637;-55
2021/05/01 12:14:04;;;;;;;12.07;10.97;;;17.80;41.30;;;;;;5047819;28;20623;-55
2021/05/01 12:16:31;;;;;;;10.43;9.57;;;17.90;41.10;;;;;;5055762;28;20710;-55
2021/05/01 12:18:59;;;;;;;12.27;11.00;;;18.00;41.00;;;;;;5052362;28;20630;-55
2021/05/01 12:21:29;;;;;;;12.00;10.97;;;18.20;41.00;;;;;;5054648;28;20629;-54
2021/05/01 12:23:58;;;;;;;12.27;11.17;;;18.40;40.60;;;;;;5047344;28;20630;-53
2021/05/01 12:26:38;;;;;;;12.90;11.67;;;18.70;40.60;;;;;;5058169;28;20630;-55
2021/05/01 12:29:26;;;;;;;13.97;12.60;;;18.90;39.80;;;;;;5054518;28;20703;-55
2021/05/01 12:31:53;;;;;;;14.30;13.00;;;19.10;39.70;;;;;;5051606;28;20646;-54